createdAt,value
2023-05-21T00:02:04.581Z,100777.59
2023-05-21T00:07:08.852Z,100766.78
2023-05-21T00:12:11.882Z,100767.75
2023-05-21T00:17:14.755Z,100756.19
2023-05-21T00:22:17.721Z,100763.81
2023-05-21T00:27:20.707Z,100756.53
2023-05-21T00:32:24.040Z,100749.59
2023-05-21T00:37:26.916Z,100755.38
2023-05-21T00:42:31.084Z,100763.38
2023-05-21T00:47:35.544Z,100756.81
2023-05-21T00:52:42.477Z,100756.59
2023-05-21T00:57:46.465Z,100756.44
2023-05-21T01:02:50.488Z,100747.03
2023-05-21T01:07:53.517Z,100744.66
2023-05-21T01:12:59.382Z,100732.97
2023-05-21T01:18:02.363Z,100737.63
2023-05-21T01:23:06.336Z,100732.16
2023-05-21T01:28:09.492Z,100728.44
2023-05-21T01:33:41.559Z,100722.09
2023-05-21T01:38:50.764Z,100721.81
2023-05-21T01:43:55.981Z,100733.44
2023-05-21T01:48:58.956Z,100730.38
2023-05-21T01:54:02.635Z,100727.97
2023-05-21T01:59:05.822Z,100733.31
2023-05-21T02:04:09.147Z,100716.44
2023-05-21T02:09:12.365Z,100712.50
2023-05-21T02:14:15.165Z,100716.19
2023-05-21T02:19:18.664Z,100708.63
2023-05-21T02:24:22.765Z,100705.28
2023-05-21T02:29:25.596Z,100694.22
2023-05-21T02:34:31.382Z,100689.94
2023-05-21T02:39:34.332Z,100679.53
2023-05-21T02:44:37.289Z,100686.28
2023-05-21T02:49:40.221Z,100677.56
2023-05-21T02:54:45.837Z,100678.34
2023-05-21T02:59:48.996Z,100672.25
2023-05-21T03:04:53.118Z,100677.31
2023-05-21T03:09:56.087Z,100684.16
2023-05-21T03:15:00.232Z,100680.66
2023-05-21T03:20:17.529Z,100666.75
2023-05-21T03:25:21.990Z,100664.84
2023-05-21T03:30:25.113Z,100669.09
2023-05-21T03:35:54.902Z,100656.06
2023-05-21T03:40:59.019Z,100654.22
2023-05-21T03:46:02.915Z,100648.94
2023-05-21T03:51:18.498Z,100654.09
2023-05-21T03:56:22.030Z,100649.69
2023-05-21T04:01:25.087Z,100639.19
2023-05-21T04:06:30.585Z,100641.78
2023-05-21T04:11:34.137Z,100631.44
2023-05-21T04:16:39.104Z,100628.78
2023-05-21T04:21:42.447Z,100619.13
2023-05-21T04:26:48.434Z,100612.13
2023-05-21T04:31:51.930Z,100613.56
2023-05-21T04:36:54.888Z,100615.25
2023-05-21T04:41:58.190Z,100606.63
2023-05-21T04:47:02.705Z,100603.84
2023-05-21T04:52:05.854Z,100592.28
2023-05-21T04:57:09.490Z,100597.31
2023-05-21T05:02:12.481Z,100593.56
2023-05-21T05:07:16.083Z,100589.91
2023-05-21T05:12:19.044Z,100600.94
2023-05-21T05:17:21.996Z,100584.47
2023-05-21T05:22:25.641Z,100577.31
2023-05-21T05:27:28.598Z,100579.72
2023-05-21T05:32:32.074Z,100578.63
2023-05-21T05:37:35.141Z,100575.72
2023-05-21T05:42:38.346Z,100580.59
2023-05-21T05:47:48.497Z,100557.88
2023-05-21T05:52:51.907Z,100560.78
2023-05-21T05:57:54.840Z,100545.81
2023-05-21T06:02:58.304Z,100548.88
2023-05-21T06:08:05.131Z,100545.47
2023-05-21T06:13:08.112Z,100534.88
2023-05-21T06:18:11.941Z,100533.31
2023-05-21T06:23:15.011Z,100534.56
2023-05-21T06:28:20.610Z,100530.66
2023-05-21T06:33:28.016Z,100522.91
2023-05-21T06:38:31.079Z,100507.03
2023-05-21T06:43:35.946Z,100506.38
2023-05-21T06:48:57.318Z,100500.94
2023-05-21T06:54:00.541Z,100502.66
2023-05-21T06:59:05.102Z,100496.69
2023-05-21T07:04:09.195Z,100496.41
2023-05-21T07:09:12.542Z,100482.13
2023-05-21T07:14:15.542Z,100477.66
2023-05-21T07:19:18.601Z,100485.94
2023-05-21T07:24:21.609Z,100494.22
2023-05-21T07:29:24.851Z,100483.38
2023-05-21T07:34:28.299Z,100481.50
2023-05-21T07:39:32.022Z,100486.97
2023-05-21T07:44:38.240Z,100481.47
2023-05-21T07:49:41.285Z,100464.09
2023-05-21T07:54:44.303Z,100475.97
2023-05-21T07:59:48.148Z,100472.16
2023-05-21T08:04:53.004Z,100466.56
2023-05-21T08:09:56.361Z,100466.72
2023-05-21T08:14:59.711Z,100460.13
2023-05-21T08:20:04.145Z,100471.31
2023-05-21T08:25:09.200Z,100461.28
2023-05-21T08:30:12.537Z,100466.78
2023-05-21T08:35:15.944Z,100461.28
2023-05-21T08:40:52.233Z,100465.72
2023-05-21T08:45:57.643Z,100465.41
2023-05-21T08:51:04.111Z,100466.78
2023-05-21T08:56:13.623Z,100468.31
2023-05-21T09:01:26.542Z,100481.25
2023-05-21T09:06:42.403Z,100481.97
2023-05-21T09:11:46.985Z,100482.84
2023-05-21T09:16:50.132Z,100479.63
2023-05-21T09:21:54.557Z,100490.66
2023-05-21T09:27:01.250Z,100473.19
2023-05-21T09:32:08.414Z,100479.59
2023-05-21T09:37:27.233Z,100481.50
2023-05-21T09:42:31.696Z,100476.66
2023-05-21T09:47:34.786Z,100482.84
2023-05-21T09:52:41.361Z,100492.31
2023-05-21T09:57:48.623Z,100486.13
2023-05-21T10:02:57.012Z,100494.13
2023-05-21T10:08:04.605Z,100475.97
2023-05-21T10:13:10.024Z,100476.03
2023-05-21T10:18:14.111Z,100475.50
2023-05-21T10:23:18.372Z,100466.19
2023-05-21T10:28:21.500Z,100462.78
2023-05-21T10:33:25.505Z,100481.19
2023-05-21T10:38:28.717Z,100491.06
2023-05-21T10:43:52.769Z,100485.72
2023-05-21T10:49:04.343Z,100488.25
2023-05-21T10:54:29.111Z,100490.91
2023-05-21T10:59:46.609Z,100490.53
2023-05-21T11:04:59.220Z,100489.53
2023-05-21T11:10:36.129Z,100488.66
2023-05-21T11:15:57.994Z,100485.84
2023-05-21T11:21:10.784Z,100488.31
2023-05-21T11:26:16.858Z,100488.59
2023-05-21T11:31:27.284Z,100484.44
2023-05-21T11:36:30.836Z,100490.13
2023-05-21T11:41:53.729Z,100509.78
2023-05-21T11:46:56.838Z,100506.94
2023-05-21T11:52:04.014Z,100494.63
2023-05-21T11:57:08.334Z,100492.09
2023-05-21T12:02:16.465Z,100501.13
2023-05-21T12:07:20.351Z,100492.16
2023-05-21T12:12:30.748Z,100508.06
2023-05-21T12:17:39.693Z,100511.25
2023-05-21T12:22:43.698Z,100503.81
2023-05-21T12:27:47.256Z,100501.44
2023-05-21T12:32:50.238Z,100508.31
2023-05-21T12:37:53.426Z,100518.41
2023-05-21T12:42:56.988Z,100513.72
2023-05-21T12:48:03.356Z,100513.50
2023-05-21T12:53:10.116Z,100512.25
2023-05-21T12:58:14.616Z,100510.81
2023-05-21T13:03:17.542Z,100518.97
2023-05-21T13:08:20.548Z,100520.13
2023-05-21T13:13:25.242Z,100528.03
2023-05-21T13:18:28.243Z,100520.47
2023-05-21T13:23:31.490Z,100539.66
2023-05-21T13:28:34.431Z,100537.41
2023-05-21T13:33:40.000Z,100539.94
2023-05-21T13:38:43.107Z,100537.75
2023-05-21T13:43:46.118Z,100550.47
2023-05-21T13:48:49.192Z,100554.69
2023-05-21T13:53:52.323Z,100569.91
2023-05-21T13:58:55.430Z,100569.22
2023-05-21T14:03:58.734Z,100578.91
2023-05-21T14:09:01.776Z,100570.84
2023-05-21T14:14:05.178Z,100566.97
2023-05-21T14:19:08.211Z,100575.06
2023-05-21T14:24:11.339Z,100588.25
2023-05-21T14:29:15.305Z,100590.22
2023-05-21T14:34:18.242Z,100600.78
2023-05-21T14:39:21.425Z,100600.09
2023-05-21T14:44:24.364Z,100615.81
2023-05-21T14:49:27.302Z,100611.59
2023-05-21T14:54:30.211Z,100623.03
2023-05-21T14:59:33.077Z,100630.81
2023-05-21T15:04:36.021Z,100631.75
2023-05-21T15:09:39.217Z,100635.25
2023-05-21T15:14:42.138Z,100632.75
2023-05-21T15:19:45.308Z,100641.41
2023-05-21T15:24:48.398Z,100644.94
2023-05-21T15:29:52.378Z,100639.91
2023-05-21T15:34:55.522Z,100644.28
2023-05-21T15:39:58.926Z,100647.75
2023-05-21T15:45:01.848Z,100655.41
2023-05-21T15:50:12.550Z,100647.63
2023-05-21T15:55:15.755Z,100655.28
2023-05-21T16:00:18.986Z,100648.38
2023-05-21T16:05:22.058Z,100644.94
2023-05-21T16:10:25.277Z,100644.03
2023-05-21T16:15:28.971Z,100640.56
2023-05-21T16:20:32.754Z,100647.41
2023-05-21T16:25:36.703Z,100642.22
2023-05-21T16:30:40.092Z,100637.84
2023-05-21T16:35:43.163Z,100638.72
2023-05-21T16:40:47.488Z,100642.06
2023-05-21T16:45:52.769Z,100636.75
2023-05-21T16:50:55.769Z,100639.28
2023-05-21T16:55:58.637Z,100640.88
2023-05-21T17:01:01.632Z,100640.88
2023-05-21T17:06:05.878Z,100639.91
2023-05-21T17:11:09.192Z,100633.09
2023-05-21T17:16:12.513Z,100641.47
2023-05-21T17:21:15.512Z,100641.28
2023-05-21T17:26:18.466Z,100643.72
2023-05-21T17:31:22.555Z,100646.22
2023-05-21T17:36:25.684Z,100656.44
2023-05-21T17:41:28.800Z,100646.25
2023-05-21T17:46:31.754Z,100640.28
2023-05-21T17:51:35.142Z,100643.88
2023-05-21T17:56:40.876Z,100646.50
2023-05-21T18:01:43.905Z,100649.03
2023-05-21T18:06:46.967Z,100633.56
2023-05-21T18:11:49.897Z,100635.41
2023-05-21T18:16:53.006Z,100630.25
2023-05-21T18:21:56.128Z,100625.88
2023-05-21T18:26:59.613Z,100629.09
2023-05-21T18:32:02.693Z,100625.50
2023-05-21T18:37:07.190Z,100627.69
2023-05-21T18:42:13.418Z,100620.47
2023-05-21T18:47:17.301Z,100633.28
2023-05-21T18:52:20.241Z,100629.91
2023-05-21T18:57:23.203Z,100635.16
2023-05-21T19:02:27.472Z,100635.28
2023-05-21T19:07:30.430Z,100639.47
2023-05-21T19:12:34.494Z,100625.59
2023-05-21T19:17:39.324Z,100630.56
2023-05-21T19:22:42.408Z,100624.53
2023-05-21T19:27:45.485Z,100635.59
2023-05-21T19:32:49.116Z,100625.38
2023-05-21T19:37:52.176Z,100628.84
2023-05-21T19:42:55.093Z,100627.16
2023-05-21T19:47:59.603Z,100633.97
2023-05-21T19:53:02.834Z,100630.38
2023-05-21T19:58:05.917Z,100631.84
2023-05-21T20:03:10.158Z,100624.78
2023-05-21T20:08:13.711Z,100627.09
2023-05-21T20:13:16.915Z,100617.31
2023-05-21T20:18:22.566Z,100623.81
2023-05-21T20:23:25.494Z,100622.69
2023-05-21T20:28:28.421Z,100629.19
2023-05-21T20:33:33.182Z,100625.47
2023-05-21T20:38:38.577Z,100642.41
2023-05-21T20:43:41.586Z,100636.88
2023-05-21T20:48:44.528Z,100637.44
2023-05-21T20:53:47.491Z,100626.06
2023-05-21T20:58:51.169Z,100630.94
2023-05-21T21:03:54.342Z,100619.44
2023-05-21T21:08:57.495Z,100633.34
2023-05-21T21:14:00.388Z,100632.13
2023-05-21T21:19:03.379Z,100634.03
2023-05-21T21:24:06.943Z,100647.78
2023-05-21T21:29:09.749Z,100636.88
2023-05-21T21:34:12.672Z,100636.38
2023-05-21T21:39:17.326Z,100645.25
2023-05-21T21:44:20.332Z,100646.91
2023-05-21T21:49:25.405Z,100649.47
2023-05-21T21:54:28.447Z,100647.81
2023-05-21T21:59:31.416Z,100650.31
2023-05-21T22:04:34.660Z,100649.41
2023-05-21T22:09:37.803Z,100652.03
2023-05-21T22:14:40.672Z,100663.22
2023-05-21T22:19:44.180Z,100669.34
2023-05-21T22:24:47.079Z,100662.75
2023-05-21T22:29:50.074Z,100663.81
2023-05-21T22:34:53.348Z,100659.63
2023-05-21T22:39:56.657Z,100670.03
2023-05-21T22:44:59.458Z,100671.88
2023-05-21T22:50:04.738Z,100677.91
2023-05-21T22:55:10.003Z,100684.00
2023-05-21T23:00:13.258Z,100674.72
2023-05-21T23:05:16.574Z,100675.72
2023-05-21T23:10:19.696Z,100680.13
2023-05-21T23:15:24.809Z,100678.38
2023-05-21T23:20:28.269Z,100684.25
2023-05-21T23:25:31.308Z,100685.00
2023-05-21T23:30:34.185Z,100683.44
2023-05-21T23:35:37.200Z,100681.91
2023-05-21T23:40:40.544Z,100679.66
2023-05-21T23:45:43.708Z,100680.91
2023-05-21T23:50:46.760Z,100695.94
2023-05-21T23:55:49.645Z,100686.75
